Nearby METAR Reports

 

KSGR - Houston/Sugar La, Texas, USA
Distance from station: ESE 7mi, 12km
Updated: Fri, 19-Apr-2024 4:53pm CDT
Mostly cloudy
Mostly cloudy
 Wind from SE
Wind: SE 10 mph, 17 km/h
Temperature: 84°F, 29°C
Heat Index: 90°F, 32°C
Dew Point: 73°F, 23°C
Humidity: 70%
Barometer: 29.94 inHg, 1013.9 hPa
Clouds: Mostly cloudy
Visibility: 10 miles, 16 km
Cloud details: Partly cloudy 2600 ft
Mostly cloudy 3600 ft
2024/04/19 21:53 KSGR 192153Z 14009KT 10SM SCT026 BKN036 29/23 A2994 RMK AO2 SLP140 T02940233
KTME - Houston Exec, Texas, USA
Distance from station: NW 14mi, 22km
Updated: Fri, 19-Apr-2024 5:15pm CDT

 Wind from ENE
Wind: ENE 7 mph, 11 km/h
Temperature: 81°F, 27°C
Heat Index: 87°F, 31°C
Dew Point: 75°F, 24°C
Humidity: 84%
Barometer: 29.97 inHg, 1014.9 hPa
Visibility: 7 miles, 11 km
2024/04/19 22:15 KTME 192215Z AUTO 06006KT 7SM 27/24 A2997 RMK AO2
 
KAXH - Houston/Southwst, Texas, USA
Distance from station: ESE 19mi, 31km
Updated: Fri, 19-Apr-2024 5:15pm CDT
Mostly cloudy
Mostly cloudy
 Wind from SE
Wind: SE 9 mph, 15 km/h
Temperature: 82°F, 28°C
Heat Index: 87°F, 31°C
Dew Point: 73°F, 23°C
Humidity: 74%
Barometer: 29.96 inHg, 1014.6 hPa
Clouds: Mostly cloudy
Visibility: 10 miles, 16 km
Cloud details: Partly cloudy 2400 ft
Mostly cloudy 3100 ft
Mostly cloudy 3700 ft
2024/04/19 22:15 KAXH 192215Z AUTO 14008KT 10SM SCT024 BKN031 BKN037 28/23 A2996 RMK AO2 T02750229
KMCJ - Houston/Univ, Texas, USA
Distance from station: ENE 23mi, 37km
Updated: Fri, 19-Apr-2024 5:15pm CDT
Mostly cloudy
Mostly cloudy
 Wind from SE
Wind: SE 15 mph, 24 km/h
Temperature: 82°F, 28°C
Heat Index: 86°F, 30°C
Dew Point: 72°F, 22°C
Humidity: 70%
Barometer: 29.94 inHg, 1013.9 hPa
Clouds: Mostly cloudy
Visibility: 8 miles, 13 km
Cloud details: Mostly cloudy 2700 ft
Mostly cloudy 3200 ft
Mostly cloudy 4700 ft
2024/04/19 22:15 KMCJ 192215Z AUTO 13013KT 8SM BKN027 BKN032 BKN047 28/22 A2994 RMK A01
 
KHOU - Houston/Hobby, Texas, USA
Distance from station: E 29mi, 47km
Updated: Fri, 19-Apr-2024 4:53pm CDT
Overcast
Overcast
 Wind from SE
Wind: SE 12 mph, 19 km/h
Temperature: 82°F, 28°C
Heat Index: 86°F, 30°C
Dew Point: 72°F, 22°C
Humidity: 70%
Barometer: 29.95 inHg, 1014.2 hPa
Clouds: Overcast
Visibility: 10 miles, 16 km
Cloud details: Partly cloudy 2600 ft
Mostly cloudy 3500 ft
Mostly cloudy 6000 ft
Overcast 25000 ft
2024/04/19 21:53 KHOU 192153Z 13010KT 10SM SCT026 BKN035 BKN060 OVC250 28/22 A2995 RMK AO2 SLP145 T02830217
KDWH - Houston/Dw Hooks, Texas, USA
Distance from station: NNE 32mi, 52km
Updated: Fri, 19-Apr-2024 5:06pm CDT
Overcast
Overcast
 Wind from varies
Wind: varies 7 mph, 11 km/h
Temperature: 82°F, 28°C
Heat Index: 86°F, 30°C
Dew Point: 72°F, 22°C
Humidity: 70%
Barometer: 29.96 inHg, 1014.6 hPa
Clouds: Overcast
Visibility: 8 miles, 13 km
Cloud details: Mostly cloudy 2500 ft
Overcast 3200 ft
2024/04/19 22:06 KDWH 192206Z VRB06KT 8SM BKN025 OVC032 28/22 A2996 RMK AO2 T02780222
 
KLVJ - Houston, Texas, USA
Distance from station: ESE 32mi, 52km
Updated: Fri, 19-Apr-2024 4:53pm CDT
Mostly cloudy
Mostly cloudy
 Wind from SSE
Wind: SSE 13 mph, 20 km/h
Temperature: 82°F, 28°C
Heat Index: 86°F, 30°C
Dew Point: 72°F, 22°C
Humidity: 70%
Barometer: 29.97 inHg, 1014.9 hPa
Clouds: Mostly cloudy
Visibility: 8 miles, 13 km
Cloud details: Few Clouds 2200 ft
Partly cloudy 2900 ft
Mostly cloudy 4000 ft
2024/04/19 21:53 KLVJ 192153Z AUTO 16011KT 8SM FEW022 SCT029 BKN040 28/22 A2997 RMK AO2 SLP147 T02830222
KELA - Eagle Lake, Texas, USA
Distance from station: W 33mi, 53km
Updated: Fri, 19-Apr-2024 4:55pm CDT
Overcast
Overcast
 Wind from N
Wind: N 8 mph, 13 km/h
Temperature: 79°F, 26°C
Dew Point: 72°F, 22°C
Humidity: 79%
Barometer: 29.96 inHg, 1014.6 hPa
Clouds: Overcast
Visibility: 10 miles, 16 km
Cloud details: Overcast 2800 ft
2024/04/19 21:55 KELA 192155Z AUTO 01007KT 10SM OVC028 26/22 A2996 RMK AO2 T02640219
 
KIAH - Houston/Intnl, Texas, USA
Distance from station: NE 35mi, 56km
Updated: Fri, 19-Apr-2024 4:53pm CDT
Overcast
Overcast
 Wind from ESE
Wind: ESE 13 mph, 20 km/h
Temperature: 81°F, 27°C
Heat Index: 85°F, 29°C
Dew Point: 72°F, 22°C
Humidity: 74%
Barometer: 29.96 inHg, 1014.6 hPa
Clouds: Overcast
Visibility: 10 miles, 16 km
Cloud details: Few Clouds 2500 ft
Mostly cloudy 3400 ft
Overcast 5000 ft
2024/04/19 21:53 KIAH 192153Z 11011KT 10SM FEW025 BKN034 OVC050 27/22 A2996 RMK AO2 SLP144 T02720217
KARM - Wharton, Texas, USA
Distance from station: SW 35mi, 57km
Updated: Fri, 19-Apr-2024 5:15pm CDT
Mostly cloudy
Mostly cloudy
 Wind from SE
Wind: SE 9 mph, 15 km/h
Barometer: 29.95 inHg, 1014.2 hPa
Clouds: Mostly cloudy
Visibility: 10 miles, 16 km
Cloud details: Partly cloudy 2500 ft
Partly cloudy 3500 ft
Mostly cloudy 4100 ft
2024/04/19 22:15 KARM 192215Z AUTO 14008KT 10SM SCT025 SCT035 BKN041 A2995 RMK AO2 TSNO
 
KEFD - Houston/Ellingto, Texas, USA
Distance from station: E 36mi, 59km
Updated: Fri, 19-Apr-2024 4:54pm CDT
Mostly cloudy
Mostly cloudy
 Wind from E
Wind: E 15 mph, 24 km/h
Temperature: 82°F, 28°C
Heat Index: 87°F, 31°C
Dew Point: 73°F, 23°C
Humidity: 74%
Barometer: 29.95 inHg, 1014.2 hPa
Clouds: Mostly cloudy
Visibility: 10 miles, 16 km
Cloud details: Mostly cloudy 2900 ft
2024/04/19 21:54 KEFD 192154Z 10013KT 10SM BKN029 28/23 A2995
KLBX - Angleton, Texas, USA
Distance from station: SSE 40mi, 65km
Updated: Fri, 19-Apr-2024 4:53pm CDT
Partly cloudy
Partly cloudy
 Wind from SE
Wind: SE 12 mph, 19 km/h
Temperature: 81°F, 27°C
Heat Index: 86°F, 30°C
Dew Point: 73°F, 23°C
Humidity: 79%
Barometer: 29.95 inHg, 1014.2 hPa
Clouds: Partly cloudy
Visibility: 10 miles, 16 km
Cloud details: Few Clouds 2200 ft
Partly cloudy 4000 ft
2024/04/19 21:53 KLBX 192153Z AUTO 13010KT 10SM FEW022 SCT040 27/23 A2995 RMK AO2 SLP143 T02720233
 
K66R - Columbus, Texas, USA
Distance from station: W 45mi, 72km
Updated: Fri, 19-Apr-2024 5:15pm CDT
Haze, Overcast
Haze, Overcast
 Wind from NE
Wind: NE 7 mph, 11 km/h
Temperature: 82°F, 28°C
Heat Index: 87°F, 31°C
Dew Point: 73°F, 23°C
Humidity: 74%
Barometer: 29.97 inHg, 1014.9 hPa
Summary: Haze
Clouds: Overcast
Visibility: 2 1/2 miles, 4 km
Cloud details: Mostly cloudy 2800 ft
Overcast 3600 ft
2024/04/19 22:15 K66R 192215Z AUTO 05006KT 2 1/2SM HZ BKN028 OVC036 28/23 A2997 RMK AO2 T02760225
KBYY - Bay City, Texas, USA
Distance from station: S 47mi, 75km
Updated: Fri, 19-Apr-2024 4:55pm CDT
Mostly cloudy
Mostly cloudy
 Wind from SE
Wind: SE 9 mph, 15 km/h
Temperature: 82°F, 28°C
Heat Index: 86°F, 30°C
Dew Point: 72°F, 22°C
Humidity: 70%
Barometer: 29.96 inHg, 1014.6 hPa
Clouds: Mostly cloudy
Visibility: 10 miles, 16 km
Cloud details: Partly cloudy 2000 ft
Mostly cloudy 4000 ft
Mostly cloudy 4900 ft
2024/04/19 21:55 KBYY 192155Z AUTO 14008KT 10SM SCT020 BKN040 BKN049 28/22 A2996 RMK AO2 T02780225